Airfield :







YOU CAN JOIN US ON...

 
LOGIN :

Register | Disclaimer

   EN    FR    IT 

 









Legend :    VFR   Marginal VFR   IFR   Intensive IFR   Very Intensive IFR
Visi :
Ceiling :
>= 8 km
>= 3000ft
5 to 8 km
1000 to 3000 ft
1500m to 5 km
500 to 1000 ft
800 to 1500m
200 to 500 ft
< 800m
< 200 ft
Symbols :   Thunderstorms  Fog  Heavy snow  Heavy precipitations  Wind > 20 kt






- Airport Elevation : 172 ft
- IATA code : YYY


CYYY - Mont Joli

CURRENT METAR :
  • 132200Z 08002KT 15SM SCT060 07/06 A2997 RMK SC3 SLP153

EXPIRED METARs :
  • 132100Z VRB02KT 15SM FEW035 FEW110 09/07 A2997 RMK SC1AC1 SLP151
  • 132000Z 28006KT 15SM FEW035 SCT120 10/07 A2998 RMK SC2AC1 SLP154
  • 131900Z 28009KT 15SM SCT035 BKN120 11/07 A2997 RMK SC3AC2 SLP152

TAF TAF CYYY
Valid from the 13 at 20:00 until the 14 at 08:00 UTC


131944Z 1320/1408 22006KT P6SM SCT060 OVC120
FM140100 VRB03KT P6SM SCT060
PROB30 1401/1408 1SM BR BKN003 RMK NXT FCST BY 140200Z



MET'MAP, your aeronautical weather chart ! - Copyright ORBIFLY December 2007 - Disclaimer

ORBIFLY MET'MAP TEAM :

Programming & Development : Alexandra Zaïnal
Concept & Development : Baudouin d'Aumeries
Co-Development & Prog : Marc-Olivier Méhu
Technical & hardware support : Manuel Goepfert

Contact : metmap@orbifly.com




SOURCES & CREDITS :

   NOAA